Time;durP1;ratioP1;P1;durP2;ratioP2;P2;SDS_P1;SDS_P2;PMS_P1;PMS_P2;Temp;Humidity;BMP_temperature;BMP_pressure;BME280_temperature;BME280_humidity;BME280_pressure;Samples;Min_cycle;Max_cycle;Signal;HPM_P1;HPM_P2
2024/01/29 00:01:56;;;;;;;87.60;29.33;;;;;;;;;;6246168;22;20373;-81
2024/01/29 00:04:23;;;;;;;79.53;28.67;;;;;;;;;;6245370;22;20043;-82
2024/01/29 00:06:49;;;;;;;76.30;31.20;;;;;;;;;;6246039;22;20337;-81
2024/01/29 00:09:17;;;;;;;73.93;29.25;;;;;;;;;;6245391;22;20035;-81
2024/01/29 00:11:45;;;;;;;87.50;29.17;;;;;;;;;;6246097;22;20008;-82
2024/01/29 00:14:12;;;;;;;73.60;30.88;;;;;;;;;;6245718;22;20009;-81
2024/01/29 00:16:38;;;;;;;69.40;29.30;;;;;;;;;;6246261;22;20070;-80
2024/01/29 00:19:05;;;;;;;75.70;28.95;;;;;;;;;;6245262;22;20012;-81
2024/01/29 00:21:33;;;;;;;77.07;29.15;;;;;;;;;;6246011;22;20016;-81
2024/01/29 00:24:00;;;;;;;76.18;29.50;;;;;;;;;;6246048;22;20080;-81
2024/01/29 00:26:28;;;;;;;75.53;29.35;;;;;;;;;;6218416;22;20020;-81
2024/01/29 00:28:55;;;;;;;81.60;29.38;;;;;;;;;;6245950;22;20070;-81
2024/01/29 00:31:25;;;;;;;79.55;29.65;;;;;;;;;;6245478;22;20046;-82
2024/01/29 00:33:52;;;;;;;80.50;29.13;;;;;;;;;;6245628;22;20012;-81
2024/01/29 00:36:19;;;;;;;86.35;29.77;;;;;;;;;;6244948;22;20082;-82
2024/01/29 00:38:46;;;;;;;83.80;30.85;;;;;;;;;;6245890;22;20016;-82
2024/01/29 00:41:12;;;;;;;67.85;28.20;;;;;;;;;;6245205;22;20433;-81
2024/01/29 00:43:39;;;;;;;88.03;30.98;;;;;;;;;;6244056;23;20389;-82
2024/01/29 00:46:06;;;;;;;81.88;30.48;;;;;;;;;;6245131;22;20016;-81
2024/01/29 00:48:33;;;;;;;68.78;28.90;;;;;;;;;;6245474;22;20015;-81
2024/01/29 00:51:01;;;;;;;83.22;28.60;;;;;;;;;;6244257;23;20012;-81
2024/01/29 00:53:28;;;;;;;83.33;29.83;;;;;;;;;;6269095;22;20024;-82
2024/01/29 00:55:54;;;;;;;77.60;28.92;;;;;;;;;;6245628;22;20715;-81
2024/01/29 00:58:23;;;;;;;73.78;27.98;;;;;;;;;;6245220;22;20020;-82
2024/01/29 01:00:50;;;;;;;64.05;27.45;;;;;;;;;;6245685;22;20091;-81
2024/01/29 01:03:17;;;;;;;70.47;28.20;;;;;;;;;;6268914;22;20446;-81
2024/01/29 01:05:44;;;;;;;72.30;27.40;;;;;;;;;;6245567;22;20022;-80
2024/01/29 01:08:11;;;;;;;73.82;30.17;;;;;;;;;;6245145;22;20302;-82
2024/01/29 01:10:38;;;;;;;83.20;29.48;;;;;;;;;;6245604;22;20023;-81
2024/01/29 01:13:05;;;;;;;73.15;28.25;;;;;;;;;;6244949;22;20016;-81
2024/01/29 01:15:31;;;;;;;77.13;28.58;;;;;;;;;;6245615;22;20016;-81
2024/01/29 01:17:58;;;;;;;77.00;29.27;;;;;;;;;;6245527;22;20498;-81
2024/01/29 01:20:25;;;;;;;73.90;28.13;;;;;;;;;;6244948;22;20024;-82
2024/01/29 01:22:52;;;;;;;69.15;27.30;;;;;;;;;;6245628;22;20023;-81
2024/01/29 01:25:18;;;;;;;84.28;29.88;;;;;;;;;;6244791;22;20010;-81
2024/01/29 01:27:45;;;;;;;76.40;28.35;;;;;;;;;;6245492;22;20012;-81
2024/01/29 01:30:12;;;;;;;81.18;27.67;;;;;;;;;;6244935;22;20012;-81
2024/01/29 01:32:39;;;;;;;68.65;27.58;;;;;;;;;;6245446;22;20023;-81
2024/01/29 01:35:06;;;;;;;70.63;29.08;;;;;;;;;;6244927;22;20437;-81
2024/01/29 01:37:33;;;;;;;69.32;27.55;;;;;;;;;;6245209;22;20437;-82
2024/01/29 01:40:00;;;;;;;72.60;27.17;;;;;;;;;;6245568;22;20012;-81
2024/01/29 01:42:27;;;;;;;81.43;27.50;;;;;;;;;;6244804;22;20043;-81
2024/01/29 01:44:53;;;;;;;71.38;26.98;;;;;;;;;;6243685;23;20043;-81
2024/01/29 01:47:20;;;;;;;68.75;27.48;;;;;;;;;;6244763;22;20008;-82
2024/01/29 01:49:47;;;;;;;69.53;27.80;;;;;;;;;;6245175;22;20622;-81
2024/01/29 01:52:19;;;;;;;68.00;26.63;;;;;;;;;;6245013;22;20055;-82
2024/01/29 01:54:47;;;;;;;80.43;28.83;;;;;;;;;;6245436;22;20018;-82
2024/01/29 01:57:14;;;;;;;76.20;27.55;;;;;;;;;;6244611;22;20497;-81
2024/01/29 01:59:41;;;;;;;75.55;25.85;;;;;;;;;;6245362;22;20012;-80
2024/01/29 02:02:11;;;;;;;77.65;26.17;;;;;;;;;;6245034;22;20020;-81
2024/01/29 02:04:37;;;;;;;102.05;29.45;;;;;;;;;;6245479;22;20024;-82
2024/01/29 02:07:04;;;;;;;94.63;30.00;;;;;;;;;;6244728;22;20083;-81
2024/01/29 02:09:33;;;;;;;111.00;30.13;;;;;;;;;;6247087;22;20428;-81
2024/01/29 02:12:01;;;;;;;102.18;30.40;;;;;;;;;;6247352;22;20491;-82
2024/01/29 02:14:27;;;;;;;102.20;30.42;;;;;;;;;;6270420;22;20098;-81
2024/01/29 02:16:54;;;;;;;77.03;26.88;;;;;;;;;;6247010;22;20012;-81
2024/01/29 02:19:21;;;;;;;81.05;29.63;;;;;;;;;;6246747;22;20016;-81
2024/01/29 02:21:49;;;;;;;75.75;29.45;;;;;;;;;;6247049;22;20012;-81
2024/01/29 02:24:16;;;;;;;77.28;29.45;;;;;;;;;;6246632;22;20038;-82
2024/01/29 02:26:47;;;;;;;84.55;29.35;;;;;;;;;;6270783;22;20018;-81
2024/01/29 02:29:14;;;;;;;64.70;28.52;;;;;;;;;;6219665;22;20016;-81
2024/01/29 02:31:41;;;;;;;79.43;28.48;;;;;;;;;;6247245;22;20016;-81
2024/01/29 02:34:07;;;;;;;70.75;28.75;;;;;;;;;;6246489;22;20381;-81
2024/01/29 02:36:35;;;;;;;65.70;27.73;;;;;;;;;;6245246;23;20020;-81
2024/01/29 02:39:02;;;;;;;79.00;28.85;;;;;;;;;;6246981;22;20370;-82
2024/01/29 02:41:29;;;;;;;58.05;26.45;;;;;;;;;;6246496;22;20026;-82
2024/01/29 02:44:00;;;;;;;71.22;27.52;;;;;;;;;;6246731;22;20012;-81
2024/01/29 02:46:27;;;;;;;66.47;26.15;;;;;;;;;;6246072;22;20425;-82
2024/01/29 02:48:53;;;;;;;56.63;24.85;;;;;;;;;;6246874;22;20016;-81
2024/01/29 02:51:20;;;;;;;63.17;27.15;;;;;;;;;;6244817;22;20099;-82
2024/01/29 02:53:47;;;;;;;63.45;25.90;;;;;;;;;;6246887;22;20443;-81
2024/01/29 02:56:13;;;;;;;58.08;26.13;;;;;;;;;;6246279;22;20016;-82
2024/01/29 02:58:40;;;;;;;70.50;27.67;;;;;;;;;;6246695;22;20496;-81
2024/01/29 03:01:07;;;;;;;66.88;26.92;;;;;;;;;;6246094;22;20012;-82
2024/01/29 03:03:34;;;;;;;72.03;26.90;;;;;;;;;;6246593;22;20016;-81
2024/01/29 03:06:01;;;;;;;72.63;27.05;;;;;;;;;;6246951;22;20012;-81
2024/01/29 03:08:28;;;;;;;60.42;27.08;;;;;;;;;;6246188;22;20028;-82
2024/01/29 03:10:54;;;;;;;65.45;27.27;;;;;;;;;;6246424;22;20012;-82
2024/01/29 03:13:21;;;;;;;62.67;26.10;;;;;;;;;;6245838;22;20433;-82
2024/01/29 03:15:48;;;;;;;64.18;26.83;;;;;;;;;;6246697;22;20008;-81
2024/01/29 03:18:15;;;;;;;68.38;25.27;;;;;;;;;;6244623;22;20058;-81
2024/01/29 03:20:41;;;;;;;73.80;28.80;;;;;;;;;;6246184;22;20016;-81
2024/01/29 03:23:09;;;;;;;56.53;25.17;;;;;;;;;;6246196;22;20012;-81
2024/01/29 03:25:36;;;;;;;64.25;25.55;;;;;;;;;;6244803;23;20058;-81
2024/01/29 03:28:04;;;;;;;54.80;25.17;;;;;;;;;;6246044;22;20031;-81
2024/01/29 03:30:31;;;;;;;63.55;26.42;;;;;;;;;;6246315;22;20032;-81
2024/01/29 03:32:57;;;;;;;67.10;26.98;;;;;;;;;;6246500;22;20032;-82
2024/01/29 03:35:24;;;;;;;53.72;24.80;;;;;;;;;;6245748;22;20099;-82
2024/01/29 03:37:51;;;;;;;58.55;25.33;;;;;;;;;;6244747;23;20039;-81
2024/01/29 03:40:18;;;;;;;62.58;26.40;;;;;;;;;;6245714;22;20040;-82
2024/01/29 03:42:44;;;;;;;65.47;26.33;;;;;;;;;;6270183;22;20027;-81
2024/01/29 03:45:11;;;;;;;55.67;24.17;;;;;;;;;;6245652;22;20012;-81
2024/01/29 03:47:38;;;;;;;52.55;24.15;;;;;;;;;;6246045;22;20016;-81
2024/01/29 03:50:05;;;;;;;68.30;26.50;;;;;;;;;;6245541;22;20459;-80
2024/01/29 03:52:32;;;;;;;66.33;26.80;;;;;;;;;;6246281;22;20123;-81
2024/01/29 03:54:59;;;;;;;68.88;26.25;;;;;;;;;;6246417;22;20247;-82
2024/01/29 03:57:26;;;;;;;60.25;25.42;;;;;;;;;;6245600;22;20040;-81
2024/01/29 03:59:56;;;;;;;56.05;21.90;;;;;;;;;;6246040;22;20062;-81
2024/01/29 04:02:26;;;;;;;68.55;25.00;;;;;;;;;;6245578;22;20039;-82
2024/01/29 04:04:52;;;;;;;53.17;23.33;;;;;;;;;;6246251;22;20448;-81
2024/01/29 04:07:19;;;;;;;76.47;26.45;;;;;;;;;;6245687;22;20008;-82
2024/01/29 04:09:46;;;;;;;71.07;26.45;;;;;;;;;;6246004;22;20012;-82
2024/01/29 04:12:13;;;;;;;59.20;21.67;;;;;;;;;;6245689;22;20039;-81
2024/01/29 04:14:40;;;;;;;67.90;24.75;;;;;;;;;;6246151;22;20036;-82
2024/01/29 04:17:07;;;;;;;92.05;26.65;;;;;;;;;;6245449;22;20016;-82
2024/01/29 04:19:34;;;;;;;65.70;24.00;;;;;;;;;;6246045;22;20015;-81
2024/01/29 04:22:01;;;;;;;56.20;24.35;;;;;;;;;;6244420;23;20012;-81
2024/01/29 04:24:28;;;;;;;64.78;25.45;;;;;;;;;;6245623;22;20059;-82
2024/01/29 04:26:56;;;;;;;64.30;24.95;;;;;;;;;;6246055;22;20016;-82
2024/01/29 04:29:23;;;;;;;59.50;25.23;;;;;;;;;;6243823;22;20074;-82
2024/01/29 04:31:49;;;;;;;77.93;28.88;;;;;;;;;;6245519;22;20012;-82
2024/01/29 04:34:17;;;;;;;73.18;27.50;;;;;;;;;;6245461;22;20016;-82
2024/01/29 04:36:45;;;;;;;75.63;25.50;;;;;;;;;;6246007;22;20058;-81
2024/01/29 04:39:12;;;;;;;65.67;25.17;;;;;;;;;;6245331;22;20020;-82
2024/01/29 04:41:38;;;;;;;68.95;26.55;;;;;;;;;;6245662;22;20018;-82
2024/01/29 04:44:05;;;;;;;64.50;25.48;;;;;;;;;;6245331;22;20012;-81
2024/01/29 04:46:32;;;;;;;58.35;25.00;;;;;;;;;;6245733;22;20020;-82
2024/01/29 04:48:58;;;;;;;59.20;24.73;;;;;;;;;;6245885;22;20012;-82
2024/01/29 04:51:26;;;;;;;57.33;24.80;;;;;;;;;;6245080;22;20036;-81
2024/01/29 04:53:52;;;;;;;60.72;25.73;;;;;;;;;;6245732;22;20042;-82
2024/01/29 04:56:19;;;;;;;66.93;26.10;;;;;;;;;;6245419;22;20012;-82
2024/01/29 04:58:46;;;;;;;69.43;27.15;;;;;;;;;;6245779;22;20027;-82
2024/01/29 05:01:13;;;;;;;67.05;25.90;;;;;;;;;;6245213;22;20015;-81
2024/01/29 05:03:40;;;;;;;67.10;25.20;;;;;;;;;;6245457;22;20455;-82
2024/01/29 05:06:06;;;;;;;79.25;28.75;;;;;;;;;;6245115;22;20361;-82
2024/01/29 05:08:33;;;;;;;78.45;27.95;;;;;;;;;;6245739;22;20433;-81
2024/01/29 05:11:00;;;;;;;63.55;26.48;;;;;;;;;;6245661;22;20019;-82
2024/01/29 05:13:27;;;;;;;67.90;27.00;;;;;;;;;;6244938;22;20020;-81
2024/01/29 05:15:54;;;;;;;78.88;27.20;;;;;;;;;;6245416;22;20014;-81
2024/01/29 05:18:21;;;;;;;84.97;28.02;;;;;;;;;;6245332;22;20012;-82
2024/01/29 05:20:47;;;;;;;98.18;27.65;;;;;;;;;;6245839;22;20333;-82
2024/01/29 05:23:14;;;;;;;89.63;28.50;;;;;;;;;;6243189;22;20016;-82
2024/01/29 05:25:41;;;;;;;91.13;27.83;;;;;;;;;;6245216;22;20019;-82
2024/01/29 05:28:08;;;;;;;118.63;28.77;;;;;;;;;;6244926;22;20008;-81
2024/01/29 05:30:34;;;;;;;97.30;26.95;;;;;;;;;;6245347;22;20023;-81
2024/01/29 05:33:01;;;;;;;158.05;30.55;;;;;;;;;;6245676;22;20638;-82
2024/01/29 05:35:48;;;;;;;140.48;28.70;;;;;;;;;;6245009;22;20016;-81
2024/01/29 05:38:16;;;;;;;146.80;29.08;;;;;;;;;;6245274;22;20013;-85
2024/01/29 05:40:43;;;;;;;133.07;26.83;;;;;;;;;;6245270;22;20012;-81
2024/01/29 05:43:09;;;;;;;211.95;32.20;;;;;;;;;;6245914;22;20016;-82
2024/01/29 05:45:36;;;;;;;185.40;30.23;;;;;;;;;;6247285;22;20445;-81
2024/01/29 05:48:07;;;;;;;325.75;34.25;;;;;;;;;;6246425;22;20054;-81
2024/01/29 05:50:33;;;;;;;228.18;28.13;;;;;;;;;;6246916;22;20316;-81
2024/01/29 05:53:00;;;;;;;192.02;28.33;;;;;;;;;;6247280;22;20028;-82
2024/01/29 05:55:27;;;;;;;235.45;29.90;;;;;;;;;;6246869;22;20012;-82
2024/01/29 05:57:54;;;;;;;212.85;27.65;;;;;;;;;;6247224;22;20020;-81
2024/01/29 06:00:21;;;;;;;182.70;23.40;;;;;;;;;;6246241;22;20024;-81
2024/01/29 06:02:49;;;;;;;155.23;23.42;;;;;;;;;;6247405;22;20026;-82
2024/01/29 06:05:16;;;;;;;224.68;25.13;;;;;;;;;;6246146;22;20027;-81
2024/01/29 06:07:44;;;;;;;174.57;22.10;;;;;;;;;;6246873;22;20024;-80
2024/01/29 06:10:14;;;;;;;176.23;22.85;;;;;;;;;;6246492;22;20016;-81
2024/01/29 06:12:41;;;;;;;171.65;20.83;;;;;;;;;;6246982;22;20019;-82
2024/01/29 06:15:08;;;;;;;152.30;19.42;;;;;;;;;;6246498;22;20004;-81
2024/01/29 06:17:35;;;;;;;143.32;20.58;;;;;;;;;;6246481;22;20035;-81
2024/01/29 06:20:04;;;;;;;131.73;20.35;;;;;;;;;;6246807;22;20039;-81
2024/01/29 06:22:44;;;;;;;110.85;20.15;;;;;;;;;;6246600;22;20024;-81
2024/01/29 06:25:11;;;;;;;107.32;20.55;;;;;;;;;;6246185;22;20008;-81
2024/01/29 06:27:38;;;;;;;140.90;21.60;;;;;;;;;;6245790;22;20016;-81
2024/01/29 06:30:06;;;;;;;127.03;21.35;;;;;;;;;;6245218;22;20017;-79
2024/01/29 06:32:32;;;;;;;116.47;19.90;;;;;;;;;;6246571;22;20008;-81
2024/01/29 06:34:59;;;;;;;180.13;20.55;;;;;;;;;;6246865;22;20009;-81
2024/01/29 06:37:26;;;;;;;141.23;18.73;;;;;;;;;;6245861;22;20020;-80
2024/01/29 06:39:53;;;;;;;159.98;20.13;;;;;;;;;;6244463;22;20088;-80
2024/01/29 06:42:20;;;;;;;226.40;19.25;;;;;;;;;;6243781;22;20314;-80
2024/01/29 06:44:46;;;;;;;262.95;20.00;;;;;;;;;;6244376;22;20012;-80
2024/01/29 06:47:17;;;;;;;349.30;21.65;;;;;;;;;;6244021;22;20433;-81
2024/01/29 06:49:44;;;;;;;302.08;20.45;;;;;;;;;;6244193;22;20020;-80
2024/01/29 06:52:11;;;;;;;332.00;23.20;;;;;;;;;;6243962;22;20039;-81
2024/01/29 06:54:44;;;;;;;255.20;19.88;;;;;;;;;;6245992;22;20074;-86
2024/01/29 06:57:11;;;;;;;266.08;20.25;;;;;;;;;;6270311;22;20015;-78
2024/01/29 06:59:37;;;;;;;255.75;22.60;;;;;;;;;;6246803;22;20077;-77
2024/01/29 07:02:05;;;;;;;279.88;21.83;;;;;;;;;;6246162;22;20096;-77
2024/01/29 07:04:33;;;;;;;277.10;21.27;;;;;;;;;;6246931;22;20031;-78
2024/01/29 07:07:00;;;;;;;172.35;21.25;;;;;;;;;;6245303;22;20039;-81
2024/01/29 07:09:27;;;;;;;206.32;21.92;;;;;;;;;;6242882;22;20038;-81
2024/01/29 07:11:56;;;;;;;209.18;23.65;;;;;;;;;;6244870;22;20070;-80
2024/01/29 07:14:24;;;;;;;213.68;25.40;;;;;;;;;;6246284;22;20321;-80
2024/01/29 07:16:51;;;;;;;251.80;24.73;;;;;;;;;;6246863;22;20009;-80
2024/01/29 07:19:25;;;;;;;127.35;25.65;;;;;;;;;;6246159;22;20009;-80
2024/01/29 07:21:53;;;;;;;177.23;27.23;;;;;;;;;;6246553;22;20016;-80
2024/01/29 07:24:20;;;;;;;101.32;22.67;;;;;;;;;;6245755;22;20417;-80
2024/01/29 07:26:47;;;;;;;108.53;24.50;;;;;;;;;;6246378;22;20023;-80
2024/01/29 07:29:13;;;;;;;181.82;28.33;;;;;;;;;;6246234;22;20008;-81
2024/01/29 07:31:40;;;;;;;159.68;25.80;;;;;;;;;;6246112;22;20421;-80
2024/01/29 07:34:07;;;;;;;132.38;26.85;;;;;;;;;;6246040;22;20012;-80
2024/01/29 07:36:36;;;;;;;97.22;23.63;;;;;;;;;;6246280;22;20012;-80
2024/01/29 07:39:03;;;;;;;97.13;25.95;;;;;;;;;;6245915;22;20038;-80
2024/01/29 07:41:31;;;;;;;102.93;26.92;;;;;;;;;;6246311;22;20017;-80
2024/01/29 07:43:58;;;;;;;89.33;24.90;;;;;;;;;;6246444;22;20077;-80
2024/01/29 07:46:25;;;;;;;162.30;28.80;;;;;;;;;;6245567;22;20683;-80
2024/01/29 07:48:51;;;;;;;211.60;28.67;;;;;;;;;;6246741;22;20017;-81
2024/01/29 07:51:18;;;;;;;156.77;26.52;;;;;;;;;;6245736;22;20012;-80
2024/01/29 07:53:45;;;;;;;275.08;30.65;;;;;;;;;;6246302;22;20445;-80
2024/01/29 07:56:11;;;;;;;87.50;25.13;;;;;;;;;;6245847;22;20028;-80
2024/01/29 07:58:38;;;;;;;87.68;24.60;;;;;;;;;;6246414;22;20198;-80
2024/01/29 08:01:05;;;;;;;105.30;28.60;;;;;;;;;;6245414;22;20016;-80
2024/01/29 08:03:32;;;;;;;96.88;27.65;;;;;;;;;;6246164;22;20016;-81
2024/01/29 08:05:59;;;;;;;109.60;28.15;;;;;;;;;;6245871;22;20063;-80
2024/01/29 08:08:26;;;;;;;135.73;27.02;;;;;;;;;;6245679;22;20314;-80
2024/01/29 08:10:52;;;;;;;248.40;31.70;;;;;;;;;;6245927;22;20437;-80
2024/01/29 08:13:19;;;;;;;175.27;27.75;;;;;;;;;;6245515;22;20317;-81
2024/01/29 08:15:46;;;;;;;159.93;26.35;;;;;;;;;;6246118;22;20310;-80
2024/01/29 08:18:12;;;;;;;169.27;27.60;;;;;;;;;;6245504;22;20042;-81
2024/01/29 08:20:39;;;;;;;148.70;25.77;;;;;;;;;;6246034;22;20321;-80
2024/01/29 08:23:06;;;;;;;145.43;24.52;;;;;;;;;;6245535;22;20012;-81
2024/01/29 08:25:33;;;;;;;212.40;26.75;;;;;;;;;;6245816;22;20020;-81
2024/01/29 08:28:00;;;;;;;239.48;30.02;;;;;;;;;;6246044;22;20012;-81
2024/01/29 08:30:26;;;;;;;213.77;26.15;;;;;;;;;;6245109;22;20016;-81
2024/01/29 08:32:53;;;;;;;288.23;28.90;;;;;;;;;;6245888;22;20008;-81
2024/01/29 08:35:20;;;;;;;261.20;30.92;;;;;;;;;;6245573;22;20012;-80
2024/01/29 08:37:47;;;;;;;268.85;32.42;;;;;;;;;;6245867;22;20017;-79
2024/01/29 08:40:14;;;;;;;147.15;30.25;;;;;;;;;;6245141;22;20008;-80
2024/01/29 08:42:41;;;;;;;169.40;29.60;;;;;;;;;;6246121;22;20008;-80
2024/01/29 08:45:08;;;;;;;127.63;26.60;;;;;;;;;;6245159;22;20016;-80
2024/01/29 08:47:35;;;;;;;87.32;25.65;;;;;;;;;;6245882;22;20026;-80
2024/01/29 08:50:01;;;;;;;106.10;25.58;;;;;;;;;;6245769;22;20434;-80
2024/01/29 08:52:28;;;;;;;145.52;25.20;;;;;;;;;;6244841;22;20087;-80
2024/01/29 08:54:55;;;;;;;193.05;28.17;;;;;;;;;;6245941;22;20020;-80
2024/01/29 08:57:22;;;;;;;192.23;25.98;;;;;;;;;;6245198;22;20023;-81
2024/01/29 08:59:48;;;;;;;171.63;26.85;;;;;;;;;;6244023;23;20023;-80
2024/01/29 09:02:15;;;;;;;138.15;24.75;;;;;;;;;;6245315;22;20065;-81
2024/01/29 09:04:42;;;;;;;129.70;27.50;;;;;;;;;;6245663;22;20081;-80
2024/01/29 09:07:09;;;;;;;152.55;28.13;;;;;;;;;;6245094;22;20448;-80
2024/01/29 09:09:36;;;;;;;142.35;28.08;;;;;;;;;;6245564;22;20492;-81
2024/01/29 09:12:03;;;;;;;68.00;24.95;;;;;;;;;;6245439;22;20385;-80
2024/01/29 09:14:30;;;;;;;72.95;24.60;;;;;;;;;;6245373;22;20043;-81
2024/01/29 09:16:57;;;;;;;69.80;26.08;;;;;;;;;;6246520;22;20060;-81
2024/01/29 09:19:24;;;;;;;60.10;22.27;;;;;;;;;;6247034;22;20958;-80
2024/01/29 09:21:51;;;;;;;73.88;28.10;;;;;;;;;;6247677;22;20013;-80
2024/01/29 09:24:18;;;;;;;83.07;27.85;;;;;;;;;;6246888;22;20543;-80
2024/01/29 09:26:45;;;;;;;73.63;25.40;;;;;;;;;;6247467;22;20016;-81
2024/01/29 09:29:11;;;;;;;61.58;23.60;;;;;;;;;;6247018;22;20492;-79
2024/01/29 09:31:38;;;;;;;58.55;25.63;;;;;;;;;;6247501;22;20016;-81
2024/01/29 09:34:05;;;;;;;69.93;25.27;;;;;;;;;;6245442;22;20008;-81
2024/01/29 09:36:34;;;;;;;54.25;22.13;;;;;;;;;;6247503;22;20004;-80
2024/01/29 09:39:01;;;;;;;61.85;22.73;;;;;;;;;;6247371;22;20012;-81
2024/01/29 09:41:34;;;;;;;59.60;20.65;;;;;;;;;;6247077;22;20028;-81
2024/01/29 09:44:06;;;;;;;55.25;21.50;;;;;;;;;;6247513;22;20019;-80
2024/01/29 09:46:44;;;;;;;52.88;21.10;;;;;;;;;;6246712;22;20039;-81
2024/01/29 09:49:11;;;;;;;49.95;19.55;;;;;;;;;;6270935;22;20034;-80
2024/01/29 09:51:39;;;;;;;53.15;21.20;;;;;;;;;;6247266;22;20087;-81
2024/01/29 09:54:06;;;;;;;51.55;20.08;;;;;;;;;;6247061;22;20048;-81
2024/01/29 09:56:33;;;;;;;54.90;20.77;;;;;;;;;;6247361;22;20070;-79
2024/01/29 09:58:59;;;;;;;59.42;20.55;;;;;;;;;;6247432;22;20087;-80
2024/01/29 10:01:26;;;;;;;44.45;19.02;;;;;;;;;;6246867;22;20020;-80
2024/01/29 10:03:53;;;;;;;56.78;21.02;;;;;;;;;;6247256;22;20020;-79
2024/01/29 10:06:20;;;;;;;58.17;19.52;;;;;;;;;;6246746;22;20438;-80
2024/01/29 10:08:47;;;;;;;56.95;19.45;;;;;;;;;;6247255;22;20349;-80
2024/01/29 10:11:14;;;;;;;44.40;18.27;;;;;;;;;;6246528;22;20028;-79
2024/01/29 10:13:41;;;;;;;47.45;18.55;;;;;;;;;;6247425;22;20016;-80
2024/01/29 10:16:08;;;;;;;51.67;18.65;;;;;;;;;;6246653;22;20020;-80
2024/01/29 10:18:35;;;;;;;47.33;16.27;;;;;;;;;;6247092;22;20031;-79
2024/01/29 10:21:04;;;;;;;44.90;16.95;;;;;;;;;;6247120;22;20012;-80
2024/01/29 10:23:31;;;;;;;49.75;17.20;;;;;;;;;;6246926;22;20019;-79
2024/01/29 10:25:59;;;;;;;41.55;17.23;;;;;;;;;;6246864;22;20016;-80
2024/01/29 10:28:27;;;;;;;48.75;17.45;;;;;;;;;;6246016;22;20020;-80
2024/01/29 10:30:55;;;;;;;38.95;16.10;;;;;;;;;;6246912;22;20054;-80
2024/01/29 10:33:24;;;;;;;44.85;15.77;;;;;;;;;;6246465;22;20036;-79
2024/01/29 10:35:50;;;;;;;41.40;15.75;;;;;;;;;;6247041;22;20083;-80
2024/01/29 10:38:21;;;;;;;34.17;15.82;;;;;;;;;;6246398;22;20091;-80
2024/01/29 10:40:49;;;;;;;41.65;15.82;;;;;;;;;;6246835;22;20020;-80
2024/01/29 10:43:19;;;;;;;33.60;14.50;;;;;;;;;;6246350;22;20445;-80
2024/01/29 10:45:50;;;;;;;40.92;14.90;;;;;;;;;;6246610;22;20016;-79
2024/01/29 10:48:22;;;;;;;35.90;15.27;;;;;;;;;;6246322;22;20062;-80
2024/01/29 10:50:50;;;;;;;43.78;16.95;;;;;;;;;;6246615;22;20020;-79
2024/01/29 10:53:18;;;;;;;41.67;15.75;;;;;;;;;;6246329;22;20016;-80
2024/01/29 10:55:49;;;;;;;38.00;14.55;;;;;;;;;;6246705;22;20018;-79
2024/01/29 10:58:17;;;;;;;45.45;15.88;;;;;;;;;;6246352;22;20020;-80
2024/01/29 11:00:44;;;;;;;33.85;13.73;;;;;;;;;;6246863;22;20074;-80
2024/01/29 11:03:12;;;;;;;41.72;14.95;;;;;;;;;;6246084;22;20012;-80
2024/01/29 11:05:42;;;;;;;33.55;14.10;;;;;;;;;;6246643;22;20012;-79
2024/01/29 11:08:16;;;;;;;34.85;14.45;;;;;;;;;;6246062;22;20004;-80
2024/01/29 11:10:43;;;;;;;34.53;14.00;;;;;;;;;;6246821;22;20455;-79
2024/01/29 11:13:12;;;;;;;41.30;15.43;;;;;;;;;;6245874;22;20070;-78
2024/01/29 11:15:41;;;;;;;41.17;13.65;;;;;;;;;;6246714;22;20091;-80
2024/01/29 11:18:10;;;;;;;;;;;;;;;;;;6246376;22;20441;-80
2024/01/29 11:20:39;;;;;;;37.65;12.98;;;;;;;;;;6246200;22;19916;-80
2024/01/29 11:23:09;;;;;;;37.75;14.95;;;;;;;;;;6246098;22;20016;-80
2024/01/29 11:25:50;;;;;;;32.47;14.25;;;;;;;;;;6244999;23;20016;-79
2024/01/29 11:28:17;;;;;;;32.97;13.82;;;;;;;;;;6245976;22;20005;-80
2024/01/29 11:30:50;;;;;;;25.75;12.45;;;;;;;;;;6246427;22;20015;-80
2024/01/29 11:33:18;;;;;;;30.67;11.75;;;;;;;;;;6245906;22;20340;-80
2024/01/29 11:35:45;;;;;;;;;;;;;;;;;;6246950;22;20018;-80
2024/01/29 11:38:14;;;;;;;27.98;11.18;;;;;;;;;;6245749;22;19915;-80
2024/01/29 11:40:41;;;;;;;30.48;12.10;;;;;;;;;;6245852;22;20009;-80
2024/01/29 11:43:16;;;;;;;25.65;12.20;;;;;;;;;;6269555;22;20020;-80
2024/01/29 11:45:49;;;;;;;31.30;12.90;;;;;;;;;;6270081;22;20091;-80
2024/01/29 11:48:18;;;;;;;32.25;12.65;;;;;;;;;;6245885;22;20008;-80
2024/01/29 11:50:51;;;;;;;28.65;12.70;;;;;;;;;;6246346;22;20464;-80
2024/01/29 11:53:25;;;;;;;26.02;11.48;;;;;;;;;;6245608;22;20076;-80
2024/01/29 11:55:53;;;;;;;28.50;12.48;;;;;;;;;;6246199;22;20329;-79
2024/01/29 11:58:22;;;;;;;25.95;11.80;;;;;;;;;;6245652;22;20067;-80
2024/01/29 12:00:51;;;;;;;35.08;12.05;;;;;;;;;;6246137;22;20013;-80
2024/01/29 12:03:22;;;;;;;19.63;10.48;;;;;;;;;;6245613;22;20019;-80
2024/01/29 12:05:52;;;;;;;22.95;10.13;;;;;;;;;;6244543;23;20016;-80
2024/01/29 12:08:21;;;;;;;26.08;11.27;;;;;;;;;;6245646;22;20317;-80
2024/01/29 12:10:48;;;;;;;23.75;10.27;;;;;;;;;;6245875;22;20012;-80
2024/01/29 12:13:17;;;;;;;22.70;9.98;;;;;;;;;;6245404;22;20016;-79
2024/01/29 12:15:45;;;;;;;28.42;10.48;;;;;;;;;;6245970;22;20016;-80
2024/01/29 12:18:16;;;;;;;27.58;10.65;;;;;;;;;;6245076;22;20083;-79
2024/01/29 12:20:44;;;;;;;24.52;9.50;;;;;;;;;;6244250;22;20020;-79
2024/01/29 12:23:13;;;;;;;21.27;9.32;;;;;;;;;;6267536;22;20023;-79
2024/01/29 12:25:40;;;;;;;26.63;9.82;;;;;;;;;;6244181;22;20019;-79
2024/01/29 12:28:09;;;;;;;26.33;9.82;;;;;;;;;;6243853;22;20008;-80
2024/01/29 12:30:37;;;;;;;27.02;10.27;;;;;;;;;;6244208;22;20349;-79
2024/01/29 12:33:07;;;;;;;27.75;10.25;;;;;;;;;;6243655;22;20018;-77
2024/01/29 12:35:36;;;;;;;34.30;10.25;;;;;;;;;;6244178;22;20014;-80
2024/01/29 12:38:07;;;;;;;;;;;;;;;;;;6244793;22;20012;-79
2024/01/29 12:40:34;;;;;;;29.58;9.45;;;;;;;;;;6243537;22;19938;-80
2024/01/29 12:43:05;;;;;;;27.88;10.23;;;;;;;;;;6244388;22;20012;-79
2024/01/29 12:45:33;;;;;;;29.30;9.30;;;;;;;;;;6242411;22;20027;-80
2024/01/29 12:48:11;;;;;;;26.50;9.30;;;;;;;;;;6245101;22;20024;-79
2024/01/29 12:50:41;;;;;;;29.73;9.18;;;;;;;;;;6244152;22;20384;-80
2024/01/29 12:53:10;;;;;;;26.65;10.18;;;;;;;;;;6245028;22;20016;-80
2024/01/29 12:55:38;;;;;;;36.42;10.45;;;;;;;;;;6245764;22;20440;-80
2024/01/29 12:58:05;;;;;;;27.95;9.55;;;;;;;;;;6245518;22;20012;-79
2024/01/29 13:00:32;;;;;;;31.55;9.73;;;;;;;;;;6245577;22;20062;-79
2024/01/29 13:02:59;;;;;;;31.15;10.25;;;;;;;;;;6245678;22;20020;-80
2024/01/29 13:05:29;;;;;;;27.20;10.15;;;;;;;;;;6245226;22;20095;-79
2024/01/29 13:07:56;;;;;;;31.52;9.18;;;;;;;;;;6245599;22;20091;-79
2024/01/29 13:10:27;;;;;;;26.95;10.07;;;;;;;;;;6268805;22;20016;-80
2024/01/29 13:12:54;;;;;;;25.02;9.00;;;;;;;;;;6245640;22;20008;-80
2024/01/29 13:15:20;;;;;;;24.65;9.73;;;;;;;;;;6245224;22;20440;-80
2024/01/29 13:17:47;;;;;;;20.67;8.77;;;;;;;;;;6245643;22;20016;-80
2024/01/29 13:20:14;;;;;;;26.15;8.90;;;;;;;;;;6245245;22;20020;-79
2024/01/29 13:22:41;;;;;;;25.95;9.85;;;;;;;;;;6245843;22;20340;-80
2024/01/29 13:25:09;;;;;;;28.10;9.18;;;;;;;;;;6244832;22;20460;-80
2024/01/29 13:27:37;;;;;;;26.98;10.05;;;;;;;;;;6245401;22;20480;-79
2024/01/29 13:30:04;;;;;;;36.05;9.73;;;;;;;;;;6245537;22;20044;-80
2024/01/29 13:32:32;;;;;;;28.63;8.95;;;;;;;;;;6244912;22;20026;-80
2024/01/29 13:34:59;;;;;;;26.77;9.37;;;;;;;;;;6245568;22;20013;-80
2024/01/29 13:37:25;;;;;;;27.92;10.13;;;;;;;;;;6245055;22;20020;-79
2024/01/29 13:39:52;;;;;;;31.73;9.73;;;;;;;;;;6245301;22;20013;-79
2024/01/29 13:42:19;;;;;;;31.55;9.95;;;;;;;;;;6244849;22;20017;-79
2024/01/29 13:44:46;;;;;;;35.85;9.93;;;;;;;;;;6243898;23;20020;-79
2024/01/29 13:47:13;;;;;;;37.03;11.02;;;;;;;;;;6244667;22;20074;-80
2024/01/29 13:49:40;;;;;;;33.22;11.73;;;;;;;;;;6245579;22;20012;-80
2024/01/29 13:52:06;;;;;;;34.22;12.88;;;;;;;;;;6244917;22;20023;-79
2024/01/29 13:54:33;;;;;;;30.77;14.75;;;;;;;;;;6245187;22;20016;-79
2024/01/29 13:57:00;;;;;;;33.78;13.18;;;;;;;;;;6245451;22;20016;-80
2024/01/29 13:59:28;;;;;;;32.13;10.60;;;;;;;;;;6244699;22;20020;-80
2024/01/29 14:01:55;;;;;;;29.30;9.50;;;;;;;;;;6269007;22;20022;-79
2024/01/29 14:04:21;;;;;;;25.98;9.27;;;;;;;;;;6245938;22;20019;-80
2024/01/29 14:06:57;;;;;;;24.83;9.13;;;;;;;;;;6247173;22;20464;-80
2024/01/29 14:09:24;;;;;;;28.45;9.73;;;;;;;;;;6246701;22;20028;-80
2024/01/29 14:11:50;;;;;;;24.17;9.50;;;;;;;;;;6246990;22;20016;-79
2024/01/29 14:14:17;;;;;;;29.85;11.13;;;;;;;;;;6246863;22;20318;-80
2024/01/29 14:16:50;;;;;;;26.73;11.38;;;;;;;;;;6249459;22;20020;-80
2024/01/29 14:19:17;;;;;;;30.35;10.45;;;;;;;;;;6246622;22;20092;-80